DLH2370 EDDM-LSZH
Flight info
| Callsign | DLH2370 |
|---|---|
| Flight time | N/A |
| Altitude | 20000 |
| Route | MERSI5S/26L MERSI Y100 MOMUK Y112 RAVED L856 NEGRA |
| Aircraft | A359/H-SDE2E3GHIJ3J4J5LM1ORWXY/LB1D1 |
Departure
| Time | N/A |
|---|---|
| Airport | Munich Airport (EDDM) |
Arrival
| Time | 2026-02-21 22:04 |
|---|---|
| Airport | Zürich Airport (LSZH) |
| Time | Latitude | Longitude | Altitude | Speed | Heading |
|---|---|---|---|---|---|
| 2026-02-21 21:54 | 47.48626 | 9.20662 | 5439 ft | 255 kts | 242° |
| 2026-02-21 21:54 | 47.47746 | 9.18473 | 5068 ft | 237 kts | 242° |
| 2026-02-21 21:54 | 47.46946 | 9.16492 | 4983 ft | 211 kts | 242° |
| 2026-02-21 21:55 | 47.46271 | 9.14817 | 4985 ft | 199 kts | 242° |
| 2026-02-21 21:55 | 47.45575 | 9.13082 | 4981 ft | 198 kts | 242° |
| 2026-02-21 21:55 | 47.44826 | 9.11211 | 4977 ft | 199 kts | 242° |
| 2026-02-21 21:55 | 47.44121 | 9.09456 | 4959 ft | 198 kts | 242° |
| 2026-02-21 21:56 | 47.43416 | 9.07701 | 4980 ft | 199 kts | 242° |
| 2026-02-21 21:56 | 47.42754 | 9.05945 | 4979 ft | 186 kts | 247° |
| 2026-02-21 21:56 | 47.42379 | 9.04202 | 5002 ft | 176 kts | 260° |
| 2026-02-21 21:56 | 47.42319 | 9.02294 | 4989 ft | 194 kts | 271° |
| 2026-02-21 21:57 | 47.42451 | 9.00278 | 4995 ft | 199 kts | 275° |
| 2026-02-21 21:57 | 47.42620 | 8.98259 | 5005 ft | 198 kts | 275° |
| 2026-02-21 21:57 | 47.42784 | 8.96238 | 4986 ft | 198 kts | 275° |
| 2026-02-21 21:57 | 47.42942 | 8.94236 | 4982 ft | 199 kts | 275° |
| 2026-02-21 21:58 | 47.43101 | 8.92200 | 4974 ft | 199 kts | 274° |
| 2026-02-21 21:58 | 47.43256 | 8.90166 | 4992 ft | 199 kts | 274° |
| 2026-02-21 21:58 | 47.43404 | 8.88157 | 4991 ft | 191 kts | 274° |
| 2026-02-21 21:58 | 47.43540 | 8.86272 | 5018 ft | 177 kts | 274° |
| 2026-02-21 21:59 | 47.43675 | 8.84484 | 5006 ft | 175 kts | 274° |
| 2026-02-21 21:59 | 47.43802 | 8.82711 | 4996 ft | 176 kts | 274° |
| 2026-02-21 21:59 | 47.43933 | 8.80903 | 4994 ft | 176 kts | 274° |
| 2026-02-21 21:59 | 47.44063 | 8.79140 | 4994 ft | 164 kts | 274° |
| 2026-02-21 22:00 | 47.44181 | 8.77564 | 4979 ft | 144 kts | 274° |
| 2026-02-21 22:00 | 47.44289 | 8.76135 | 4729 ft | 137 kts | 275° |
| 2026-02-21 22:00 | 47.44353 | 8.75214 | 4534 ft | 134 kts | 273° |
| 2026-02-21 22:00 | 47.44436 | 8.73855 | 4204 ft | 131 kts | 272° |
| 2026-02-21 22:01 | 47.44509 | 8.72532 | 3977 ft | 127 kts | 272° |
| 2026-02-21 22:01 | 47.44577 | 8.71223 | 3712 ft | 128 kts | 271° |
| 2026-02-21 22:01 | 47.44696 | 8.69504 | 3386 ft | 125 kts | 276° |
| 2026-02-21 22:01 | 47.44780 | 8.68642 | 3255 ft | 126 kts | 273° |
| 2026-02-21 22:02 | 47.44885 | 8.67364 | 3008 ft | 127 kts | 271° |
| 2026-02-21 22:02 | 47.44989 | 8.66060 | 2795 ft | 127 kts | 272° |
| 2026-02-21 22:02 | 47.45085 | 8.64753 | 2568 ft | 129 kts | 272° |
| 2026-02-21 22:02 | 47.45171 | 8.63406 | 2416 ft | 135 kts | 274° |
| 2026-02-21 22:03 | 47.45289 | 8.61993 | 2180 ft | 141 kts | 276° |
| 2026-02-21 22:03 | 47.45403 | 8.60529 | 1963 ft | 144 kts | 275° |
| 2026-02-21 22:03 | 47.45516 | 8.59070 | 1727 ft | 143 kts | 272° |
| 2026-02-21 22:03 | 47.45617 | 8.57619 | 1526 ft | 145 kts | 272° |
| 2026-02-21 22:04 | 47.45722 | 8.56148 | 1411 ft | 139 kts | 272° |
| 2026-02-21 22:04 | 47.45801 | 8.55039 | 1406 ft | 66 kts | 277° |
| 2026-02-21 22:04 | 47.45812 | 8.54785 | 1412 ft | 1 kts | 227° |
| 2026-02-21 22:04 | 47.45774 | 8.54784 | 1412 ft | 13 kts | 168° |
| 2026-02-21 22:05 | 47.45643 | 8.54914 | 1410 ft | 32 kts | 146° |
| 2026-02-21 22:05 | 47.45446 | 8.55086 | 1413 ft | 29 kts | 133° |
| 2026-02-21 22:05 | 47.45372 | 8.55298 | 1417 ft | 15 kts | 103° |
| 2026-02-21 22:05 | 47.45321 | 8.55454 | 1413 ft | 15 kts | 117° |